Time;durP1;ratioP1;P1;durP2;ratioP2;P2;SDS_P1;SDS_P2;PMS_P1;PMS_P2;Temp;Humidity;BMP_temperature;BMP_pressure;BME280_temperature;BME280_humidity;BME280_pressure;Samples;Min_cycle;Max_cycle;Signal;HPM_P1;HPM_P2
2023/05/14 00:00:30;;;;;;;5.93;4.70;;;18.30;74.50;;;;;;5051181;28;20517;-74
2023/05/14 00:02:58;;;;;;;5.13;4.50;;;18.20;74.70;;;;;;5050123;28;20484;-73
2023/05/14 00:05:25;;;;;;;5.70;4.60;;;18.20;75.00;;;;;;4998954;28;20448;-74
2023/05/14 00:07:52;;;;;;;6.00;4.70;;;18.10;75.10;;;;;;5050749;28;20511;-76
2023/05/14 00:10:20;;;;;;;5.33;4.83;;;18.10;75.10;;;;;;4993723;28;20456;-74
2023/05/14 00:12:47;;;;;;;4.83;4.43;;;18.10;75.10;;;;;;5051685;28;20460;-75
2023/05/14 00:15:14;;;;;;;5.03;4.37;;;18.10;75.30;;;;;;5017122;28;20437;-74
2023/05/14 00:17:41;;;;;;;5.13;4.20;;;18.10;75.30;;;;;;5052893;28;20451;-74
2023/05/14 00:20:11;;;;;;;4.40;4.00;;;18.10;75.30;;;;;;5052718;28;20460;-75
2023/05/14 00:22:38;;;;;;;4.67;4.30;;;18.10;75.30;;;;;;5052761;28;20456;-74
2023/05/14 00:25:07;;;;;;;4.97;4.47;;;18.10;75.20;;;;;;5051366;28;20472;-75
2023/05/14 00:27:36;;;;;;;5.07;4.57;;;18.10;75.10;;;;;;5051233;28;20496;-75
2023/05/14 00:30:06;;;;;;;5.17;4.50;;;18.10;75.10;;;;;;5048385;28;20464;-74
2023/05/14 00:32:32;;;;;;;4.77;4.37;;;18.10;75.20;;;;;;5051421;28;20476;-75
2023/05/14 00:34:59;;;;;;;5.10;4.70;;;18.10;75.20;;;;;;5052679;28;20444;-74
2023/05/14 00:37:28;;;;;;;4.80;4.37;;;18.00;75.10;;;;;;5052593;28;20488;-74
2023/05/14 00:39:55;;;;;;;4.73;4.33;;;18.00;75.20;;;;;;5050818;28;20480;-75
2023/05/14 00:42:22;;;;;;;5.43;4.93;;;18.00;75.50;;;;;;5051994;28;20471;-75
2023/05/14 00:44:48;;;;;;;5.00;4.50;;;18.00;75.60;;;;;;5051950;28;21198;-74
2023/05/14 00:47:16;;;;;;;4.70;4.30;;;18.00;75.70;;;;;;5050436;28;20484;-74
2023/05/14 00:49:43;;;;;;;4.63;4.23;;;17.90;75.50;;;;;;5050220;28;20945;-74
2023/05/14 00:52:11;;;;;;;5.67;4.60;;;18.00;75.70;;;;;;5050873;28;20460;-75
2023/05/14 00:54:40;;;;;;;5.13;4.13;;;17.90;75.80;;;;;;5054769;28;20486;-74
2023/05/14 00:57:07;;;;;;;6.63;4.43;;;17.90;75.70;;;;;;5052399;28;20448;-75
2023/05/14 00:59:34;;;;;;;4.60;4.20;;;17.90;75.80;;;;;;5050792;28;20455;-74
2023/05/14 01:02:01;;;;;;;4.77;4.27;;;17.90;75.80;;;;;;5052672;28;20507;-73
2023/05/14 01:04:30;;;;;;;5.13;4.10;;;17.90;75.90;;;;;;5033652;28;20476;-74
2023/05/14 01:07:07;;;;;;;4.60;4.20;;;17.80;75.90;;;;;;5050981;28;20483;-74
2023/05/14 01:09:42;;;;;;;4.77;4.30;;;17.80;76.30;;;;;;5048404;28;20464;-73
2023/05/14 01:12:19;;;;;;;4.87;4.43;;;17.80;76.30;;;;;;5046069;28;20478;-75
2023/05/14 01:14:54;;;;;;;5.47;4.27;;;17.80;76.40;;;;;;4999891;28;20463;-74
2023/05/14 01:17:22;;;;;;;4.93;4.17;;;17.80;76.50;;;;;;5011930;28;20546;-74
2023/05/14 01:19:50;;;;;;;4.70;4.30;;;17.80;76.40;;;;;;5031230;28;20457;-74
2023/05/14 01:22:19;;;;;;;4.80;4.40;;;17.80;76.50;;;;;;5036531;28;20468;-74
2023/05/14 01:24:45;;;;;;;4.80;4.37;;;17.80;76.50;;;;;;5050482;28;20881;-74
2023/05/14 01:27:18;;;;;;;4.50;4.10;;;17.80;76.60;;;;;;5050196;28;20484;-74
2023/05/14 01:29:51;;;;;;;4.63;4.30;;;17.80;76.90;;;;;;5050381;28;20500;-74
2023/05/14 01:32:22;;;;;;;5.07;4.57;;;17.80;76.90;;;;;;5048969;28;20495;-74
2023/05/14 01:34:50;;;;;;;4.87;4.40;;;17.70;76.70;;;;;;5050836;28;20544;-74
2023/05/14 01:37:20;;;;;;;5.37;4.80;;;17.70;76.70;;;;;;5049673;28;20567;-74
2023/05/14 01:39:48;;;;;;;5.07;4.37;;;17.70;76.80;;;;;;5015218;28;20441;-74
2023/05/14 01:42:15;;;;;;;6.33;4.73;;;17.70;77.50;;;;;;5051236;28;20901;-74
2023/05/14 01:44:42;;;;;;;5.77;4.37;;;17.70;76.70;;;;;;5048481;28;20490;-73
2023/05/14 01:47:09;;;;;;;4.67;4.20;;;17.60;76.70;;;;;;5046467;28;20488;-74
2023/05/14 01:49:36;;;;;;;4.87;4.47;;;17.60;76.70;;;;;;5032289;28;20856;-74
2023/05/14 01:52:06;;;;;;;5.50;4.53;;;17.60;76.70;;;;;;5049982;28;20452;-74
2023/05/14 01:54:35;;;;;;;5.57;4.17;;;17.50;76.80;;;;;;5050186;28;20837;-74
2023/05/14 01:57:02;;;;;;;4.60;4.20;;;17.60;76.80;;;;;;5048289;28;20970;-73
2023/05/14 01:59:29;;;;;;;4.90;4.27;;;17.50;76.80;;;;;;5013979;28;20941;-74
2023/05/14 02:01:56;;;;;;;4.87;4.47;;;17.50;77.00;;;;;;5049875;28;20817;-73
2023/05/14 02:04:23;;;;;;;4.83;4.40;;;17.40;76.80;;;;;;5057233;28;20468;-74
2023/05/14 02:06:51;;;;;;;4.93;4.53;;;17.40;76.90;;;;;;5049822;28;20561;-73
2023/05/14 02:09:18;;;;;;;5.47;4.13;;;17.40;77.00;;;;;;5048096;28;20502;-73
2023/05/14 02:11:47;;;;;;;6.03;4.47;;;17.40;76.90;;;;;;5045260;28;20457;-74
2023/05/14 02:14:14;;;;;;;5.33;4.47;;;17.30;76.80;;;;;;5048945;28;20496;-73
2023/05/14 02:16:41;;;;;;;6.13;4.20;;;17.30;76.80;;;;;;5049227;28;20452;-74
2023/05/14 02:19:08;;;;;;;5.00;4.50;;;17.30;76.80;;;;;;5049448;28;20472;-73
2023/05/14 02:21:35;;;;;;;6.90;4.97;;;17.20;76.70;;;;;;5049012;28;20456;-74
2023/05/14 02:24:02;;;;;;;4.77;4.37;;;17.20;76.80;;;;;;5031987;28;20797;-73
2023/05/14 02:26:30;;;;;;;4.87;4.37;;;17.10;76.60;;;;;;5048659;28;20523;-73
2023/05/14 02:28:58;;;;;;;4.63;4.23;;;17.10;76.60;;;;;;5040715;28;20482;-74
2023/05/14 02:31:25;;;;;;;6.73;4.30;;;17.10;76.60;;;;;;5037583;28;20449;-73
2023/05/14 02:33:52;;;;;;;6.67;4.67;;;17.10;76.80;;;;;;5049235;28;20590;-74
2023/05/14 02:36:19;;;;;;;4.83;4.43;;;17.10;76.70;;;;;;5050635;28;20464;-74
2023/05/14 02:38:46;;;;;;;4.70;4.30;;;17.00;76.60;;;;;;5028402;28;20443;-74
2023/05/14 02:41:13;;;;;;;5.07;4.67;;;17.00;76.70;;;;;;5044474;28;20451;-75
2023/05/14 02:43:40;;;;;;;5.17;4.70;;;16.90;76.70;;;;;;5048549;28;20470;-74
2023/05/14 02:46:08;;;;;;;4.70;4.30;;;16.90;76.90;;;;;;5050040;28;20510;-74
2023/05/14 02:48:35;;;;;;;4.90;4.40;;;16.90;77.10;;;;;;5050201;28;20510;-75
2023/05/14 02:51:02;;;;;;;4.77;4.37;;;16.90;77.30;;;;;;5051216;28;20932;-74
2023/05/14 02:53:29;;;;;;;5.27;4.77;;;16.90;77.30;;;;;;5051107;28;20456;-74
2023/05/14 02:55:56;;;;;;;4.40;4.00;;;16.90;77.40;;;;;;5043483;28;20586;-74
2023/05/14 02:58:23;;;;;;;5.93;4.47;;;16.90;77.40;;;;;;5030620;28;20443;-75
2023/05/14 03:00:50;;;;;;;4.37;3.97;;;16.90;77.50;;;;;;5030875;28;20541;-74
2023/05/14 03:03:19;;;;;;;4.80;4.40;;;16.90;77.50;;;;;;5030966;28;20465;-75
2023/05/14 03:05:46;;;;;;;5.53;5.03;;;16.90;77.60;;;;;;5050618;28;20440;-74
2023/05/14 03:08:13;;;;;;;6.87;4.43;;;16.90;77.70;;;;;;5014023;28;20491;-74
2023/05/14 03:10:40;;;;;;;4.70;4.20;;;17.00;78.80;;;;;;5050529;28;20464;-74
2023/05/14 03:13:07;;;;;;;6.27;4.60;;;17.00;78.00;;;;;;5042938;28;20453;-74
2023/05/14 03:15:34;;;;;;;4.60;4.20;;;17.00;78.00;;;;;;5049001;28;20456;-74
2023/05/14 03:18:00;;;;;;;4.47;4.07;;;17.00;77.80;;;;;;5050331;28;20451;-74
2023/05/14 03:20:29;;;;;;;4.90;4.50;;;17.00;77.40;;;;;;5021767;28;20534;-74
2023/05/14 03:22:55;;;;;;;4.87;4.33;;;16.90;77.30;;;;;;5050022;28;20451;-74
2023/05/14 03:25:22;;;;;;;5.43;4.93;;;16.90;77.30;;;;;;5054693;28;20470;-74
2023/05/14 03:27:49;;;;;;;5.90;4.57;;;16.80;77.20;;;;;;5016290;28;20484;-74
2023/05/14 03:30:16;;;;;;;6.70;4.60;;;16.70;77.50;;;;;;5052092;28;20492;-74
2023/05/14 03:32:43;;;;;;;5.10;4.70;;;16.70;77.50;;;;;;5051519;28;20463;-74
2023/05/14 03:35:10;;;;;;;5.10;4.60;;;16.70;77.50;;;;;;5042636;28;20539;-74
2023/05/14 03:37:38;;;;;;;4.87;4.47;;;16.60;77.30;;;;;;5052243;28;20467;-73
2023/05/14 03:40:07;;;;;;;6.03;4.87;;;16.60;77.30;;;;;;5052644;28;20456;-73
2023/05/14 03:42:33;;;;;;;5.10;4.60;;;16.60;77.20;;;;;;5052537;28;20569;-73
2023/05/14 03:45:04;;;;;;;5.43;4.93;;;16.60;77.20;;;;;;5052185;28;20472;-73
2023/05/14 03:47:31;;;;;;;5.30;4.80;;;16.60;77.20;;;;;;5046611;28;20527;-73
2023/05/14 03:49:58;;;;;;;5.27;4.77;;;16.60;77.30;;;;;;5052465;28;20487;-73
2023/05/14 03:52:27;;;;;;;4.57;4.20;;;16.50;77.20;;;;;;5051667;28;20563;-73
2023/05/14 03:54:55;;;;;;;4.67;4.27;;;16.50;77.10;;;;;;5029922;28;20467;-74
2023/05/14 03:57:22;;;;;;;4.90;4.40;;;16.50;77.10;;;;;;5052769;28;20448;-74
2023/05/14 03:59:48;;;;;;;5.57;4.43;;;16.50;77.20;;;;;;5053817;28;20944;-74
2023/05/14 04:02:15;;;;;;;4.70;4.20;;;16.50;77.90;;;;;;5052930;28;20469;-74
2023/05/14 04:04:42;;;;;;;6.30;4.67;;;16.50;77.00;;;;;;5072025;28;20453;-73
2023/05/14 04:07:09;;;;;;;5.17;4.20;;;16.50;76.80;;;;;;5058069;28;20456;-74
2023/05/14 04:09:36;;;;;;;4.83;4.43;;;16.40;76.90;;;;;;5059865;28;20472;-74
2023/05/14 04:12:05;;;;;;;4.93;4.53;;;16.30;76.80;;;;;;5076914;28;20432;-73
2023/05/14 04:14:31;;;;;;;4.73;4.33;;;16.30;76.90;;;;;;5067801;28;20460;-74
2023/05/14 04:16:58;;;;;;;6.47;4.87;;;16.30;76.70;;;;;;5076976;28;20532;-74
2023/05/14 04:19:25;;;;;;;4.70;4.30;;;16.30;76.60;;;;;;5076939;28;20512;-74
2023/05/14 04:21:52;;;;;;;4.53;4.13;;;16.30;76.70;;;;;;5073235;28;20477;-73
2023/05/14 04:24:19;;;;;;;4.40;4.00;;;16.30;76.80;;;;;;5052584;28;20571;-73
2023/05/14 04:26:46;;;;;;;4.70;4.30;;;16.30;77.00;;;;;;5051849;28;20582;-74
2023/05/14 04:29:14;;;;;;;7.77;4.33;;;16.30;77.00;;;;;;5051355;28;21235;-72
2023/05/14 04:31:41;;;;;;;4.30;3.90;;;16.30;77.10;;;;;;5051682;28;20456;-73
2023/05/14 04:34:08;;;;;;;4.67;4.27;;;16.30;77.20;;;;;;5050942;28;20817;-73
2023/05/14 04:36:36;;;;;;;4.90;4.20;;;16.30;77.10;;;;;;5051239;28;20912;-73
2023/05/14 04:39:04;;;;;;;5.07;4.67;;;16.30;77.20;;;;;;5050680;28;20444;-72
2023/05/14 04:41:31;;;;;;;4.90;4.50;;;16.30;77.10;;;;;;5041660;28;20536;-73
2023/05/14 04:44:00;;;;;;;4.70;4.20;;;16.30;77.00;;;;;;5033689;28;20475;-74
2023/05/14 04:46:30;;;;;;;4.20;3.90;;;16.20;76.50;;;;;;5052041;28;20460;-73
2023/05/14 04:48:57;;;;;;;4.43;4.03;;;16.10;76.70;;;;;;5050614;28;20484;-73
2023/05/14 04:51:25;;;;;;;4.43;4.00;;;16.10;76.90;;;;;;5051024;28;20482;-73
2023/05/14 04:53:52;;;;;;;4.90;4.50;;;16.10;77.00;;;;;;5050673;28;20515;-73
2023/05/14 04:56:20;;;;;;;5.50;4.43;;;16.10;77.10;;;;;;5052216;28;20448;-73
2023/05/14 04:58:47;;;;;;;4.50;4.10;;;16.10;77.20;;;;;;5051724;28;20469;-73
2023/05/14 05:01:14;;;;;;;4.70;4.00;;;16.20;77.20;;;;;;5050464;28;20464;-73
2023/05/14 05:03:42;;;;;;;4.13;3.80;;;16.20;78.10;;;;;;5051348;28;20445;-74
2023/05/14 05:06:10;;;;;;;6.13;4.10;;;16.20;77.30;;;;;;5051168;28;20932;-74
2023/05/14 05:08:37;;;;;;;4.67;4.27;;;16.30;77.20;;;;;;5051558;28;20814;-73
2023/05/14 05:11:04;;;;;;;4.70;4.30;;;16.30;76.90;;;;;;5050911;28;20480;-74
2023/05/14 05:13:32;;;;;;;5.13;4.63;;;16.40;76.90;;;;;;5049503;28;20492;-74
2023/05/14 05:15:58;;;;;;;5.43;4.93;;;16.40;76.80;;;;;;5045360;28;20463;-74
2023/05/14 05:18:25;;;;;;;5.17;4.50;;;16.50;76.70;;;;;;5050416;28;20551;-73
2023/05/14 05:20:54;;;;;;;4.67;4.17;;;16.60;76.30;;;;;;5050690;28;20452;-73
2023/05/14 05:23:21;;;;;;;4.80;4.07;;;16.60;76.60;;;;;;5050074;28;20463;-73
2023/05/14 05:25:49;;;;;;;4.57;4.13;;;16.60;76.30;;;;;;5014305;28;20467;-73
2023/05/14 05:28:16;;;;;;;5.37;4.40;;;16.80;76.30;;;;;;5050488;28;20455;-73
2023/05/14 05:30:43;;;;;;;5.23;4.70;;;16.80;75.80;;;;;;5049067;28;20945;-73
2023/05/14 05:33:11;;;;;;;4.80;4.40;;;16.80;76.00;;;;;;5050340;28;20448;-73
2023/05/14 05:35:38;;;;;;;5.50;4.40;;;16.90;75.80;;;;;;5049812;28;20450;-73
2023/05/14 05:38:06;;;;;;;5.00;4.53;;;17.00;75.80;;;;;;5049143;28;20465;-73
2023/05/14 05:40:34;;;;;;;5.00;4.20;;;17.10;75.50;;;;;;5050375;28;20459;-73
2023/05/14 05:43:01;;;;;;;5.23;4.53;;;17.10;74.90;;;;;;5046949;28;20480;-73
2023/05/14 05:45:28;;;;;;;5.00;4.23;;;17.10;75.70;;;;;;5051343;28;20475;-73
2023/05/14 05:47:55;;;;;;;4.57;4.17;;;17.20;75.00;;;;;;5050709;28;20456;-73
2023/05/14 05:50:22;;;;;;;5.13;4.63;;;17.30;75.70;;;;;;5050417;28;20483;-73
2023/05/14 05:52:48;;;;;;;4.97;4.50;;;17.30;74.80;;;;;;5051628;28;20455;-73
2023/05/14 05:55:17;;;;;;;4.90;4.50;;;17.40;75.50;;;;;;5051208;28;20803;-73
2023/05/14 05:57:43;;;;;;;4.63;4.23;;;17.40;74.50;;;;;;4988024;28;20956;-72
2023/05/14 06:00:12;;;;;;;5.50;4.70;;;17.50;74.70;;;;;;5050831;28;20441;-73
2023/05/14 06:02:40;;;;;;;5.30;4.43;;;17.60;74.10;;;;;;5049460;28;20468;-73
2023/05/14 06:05:08;;;;;;;4.70;4.30;;;17.70;73.60;;;;;;5050197;28;20480;-74
2023/05/14 06:07:35;;;;;;;4.47;4.10;;;17.70;73.50;;;;;;5050050;28;20532;-73
2023/05/14 06:10:02;;;;;;;4.80;4.40;;;17.80;73.30;;;;;;5048922;28;20480;-73
2023/05/14 06:12:31;;;;;;;4.53;4.13;;;17.80;73.50;;;;;;5049184;28;20543;-72
2023/05/14 06:14:57;;;;;;;4.60;4.20;;;17.90;73.30;;;;;;5015092;28;20459;-73
2023/05/14 06:17:26;;;;;;;4.37;3.97;;;18.00;73.00;;;;;;5042640;28;20452;-74
2023/05/14 06:19:53;;;;;;;4.70;4.30;;;18.10;72.80;;;;;;5048677;28;20457;-73
2023/05/14 06:22:20;;;;;;;5.00;4.50;;;18.10;72.30;;;;;;5049399;28;20460;-73
2023/05/14 06:24:47;;;;;;;5.37;4.47;;;18.20;72.30;;;;;;5035328;28;20454;-73
2023/05/14 06:27:14;;;;;;;5.60;5.10;;;18.30;72.40;;;;;;5049377;28;20463;-73
2023/05/14 06:29:42;;;;;;;4.80;4.30;;;18.40;71.90;;;;;;5049317;28;20495;-74
2023/05/14 06:32:09;;;;;;;5.37;4.30;;;18.40;71.20;;;;;;5048572;28;20487;-73
2023/05/14 06:34:36;;;;;;;4.93;4.53;;;18.50;71.20;;;;;;5049237;28;20463;-73
2023/05/14 06:37:03;;;;;;;4.60;4.20;;;18.60;71.30;;;;;;5049914;28;20543;-73
2023/05/14 06:39:30;;;;;;;5.07;4.67;;;18.60;70.70;;;;;;5050159;28;20290;-73
2023/05/14 06:41:57;;;;;;;5.03;4.63;;;18.70;70.40;;;;;;5049946;28;20456;-73
2023/05/14 06:44:23;;;;;;;5.33;4.47;;;18.70;70.20;;;;;;5049839;28;20452;-73
2023/05/14 06:46:52;;;;;;;5.30;4.80;;;18.80;70.50;;;;;;5050841;28;20478;-73
2023/05/14 06:49:19;;;;;;;5.20;4.77;;;18.80;70.20;;;;;;5050490;28;20224;-72
2023/05/14 06:51:46;;;;;;;5.20;4.70;;;18.90;70.20;;;;;;5051094;28;20531;-73
2023/05/14 06:54:12;;;;;;;4.63;4.23;;;18.90;70.00;;;;;;5033446;28;20243;-73
2023/05/14 06:56:39;;;;;;;5.00;4.60;;;18.90;69.80;;;;;;5050548;28;20491;-74
2023/05/14 06:59:07;;;;;;;5.43;4.93;;;18.90;70.00;;;;;;5055158;28;20531;-74
2023/05/14 07:01:33;;;;;;;5.10;4.43;;;19.00;69.60;;;;;;5054857;28;20499;-75
2023/05/14 07:04:02;;;;;;;5.13;4.63;;;19.10;69.80;;;;;;5050273;28;20499;-74
2023/05/14 07:06:28;;;;;;;4.70;4.30;;;19.10;69.20;;;;;;5054766;28;20579;-74
2023/05/14 07:08:56;;;;;;;4.93;4.47;;;19.10;69.20;;;;;;5054406;28;20563;-73
2023/05/14 07:11:23;;;;;;;4.60;4.20;;;19.10;69.40;;;;;;5054642;28;20452;-75
2023/05/14 07:13:50;;;;;;;4.93;4.53;;;19.10;69.20;;;;;;5052389;28;20288;-74
2023/05/14 07:16:16;;;;;;;5.00;4.50;;;19.10;69.20;;;;;;5047776;28;20298;-75
2023/05/14 07:18:44;;;;;;;5.43;4.57;;;19.20;69.00;;;;;;5049816;28;20220;-75
2023/05/14 07:21:12;;;;;;;4.80;4.40;;;19.20;69.40;;;;;;5052683;28;20197;-73
2023/05/14 07:23:39;;;;;;;4.40;4.00;;;19.30;69.70;;;;;;5053195;28;20454;-75
2023/05/14 07:26:06;;;;;;;5.20;4.70;;;19.30;69.50;;;;;;5051465;28;20569;-75
2023/05/14 07:28:33;;;;;;;5.20;4.67;;;19.30;69.40;;;;;;5051778;28;20288;-74
2023/05/14 07:31:00;;;;;;;5.07;4.57;;;19.40;69.40;;;;;;5052421;28;20206;-75
2023/05/14 07:33:27;;;;;;;5.03;4.53;;;19.50;69.50;;;;;;5052873;28;20256;-75
2023/05/14 07:35:54;;;;;;;4.67;4.27;;;19.60;69.00;;;;;;5051860;28;20585;-74
2023/05/14 07:38:23;;;;;;;4.73;4.33;;;19.70;68.70;;;;;;5052103;28;20448;-74
2023/05/14 07:40:50;;;;;;;4.80;4.40;;;19.70;68.50;;;;;;5052515;28;20689;-71
2023/05/14 07:43:16;;;;;;;5.20;4.77;;;19.80;68.20;;;;;;5052600;28;20606;-74
2023/05/14 07:45:43;;;;;;;4.67;4.27;;;19.90;68.30;;;;;;5050453;28;20208;-74
2023/05/14 07:48:10;;;;;;;4.93;4.53;;;20.00;68.80;;;;;;5051788;28;20245;-74
2023/05/14 07:50:37;;;;;;;4.90;4.50;;;20.10;68.00;;;;;;5000642;28;20313;-74
2023/05/14 07:53:04;;;;;;;4.80;4.40;;;20.10;67.30;;;;;;5051769;28;20298;-74
2023/05/14 07:55:33;;;;;;;5.33;4.83;;;20.20;68.20;;;;;;5052476;28;20312;-74
2023/05/14 07:57:59;;;;;;;4.67;4.27;;;20.30;67.60;;;;;;5050137;28;20261;-74
2023/05/14 08:00:26;;;;;;;5.13;4.63;;;20.40;67.10;;;;;;5052407;28;20209;-74
2023/05/14 08:02:55;;;;;;;5.27;4.77;;;20.40;66.90;;;;;;5049966;28;20205;-74
2023/05/14 08:05:22;;;;;;;4.50;4.10;;;20.50;67.10;;;;;;5040785;28;20224;-74
2023/05/14 08:07:49;;;;;;;4.90;4.50;;;20.60;67.00;;;;;;5052032;28;20292;-74
2023/05/14 08:10:16;;;;;;;4.60;4.20;;;20.60;66.80;;;;;;5051332;28;20249;-75
2023/05/14 08:12:44;;;;;;;5.23;4.50;;;20.70;66.50;;;;;;5059078;28;20296;-73
2023/05/14 08:15:13;;;;;;;4.60;4.20;;;20.70;66.70;;;;;;5056218;28;20226;-74
2023/05/14 08:17:39;;;;;;;4.77;4.37;;;20.80;66.60;;;;;;5047710;28;20310;-74
2023/05/14 08:20:08;;;;;;;4.90;4.50;;;20.90;66.60;;;;;;5051778;28;20244;-74
2023/05/14 08:22:35;;;;;;;5.00;4.50;;;21.00;66.10;;;;;;5049291;28;20201;-74
2023/05/14 08:25:02;;;;;;;4.50;4.10;;;21.10;66.60;;;;;;5051488;28;20230;-73
2023/05/14 08:27:29;;;;;;;5.70;4.57;;;21.10;66.00;;;;;;5051455;28;20321;-73
2023/05/14 08:29:57;;;;;;;5.13;4.73;;;21.20;65.50;;;;;;5051476;28;20276;-69
2023/05/14 08:32:24;;;;;;;4.40;4.00;;;21.30;64.70;;;;;;5051355;28;20588;-78
2023/05/14 08:34:51;;;;;;;4.20;3.90;;;21.40;65.20;;;;;;5017943;28;20233;-72
2023/05/14 08:37:18;;;;;;;4.03;3.73;;;21.50;64.20;;;;;;5051127;28;20198;-71
2023/05/14 08:39:45;;;;;;;4.40;4.00;;;21.50;63.70;;;;;;5050951;28;20313;-75
2023/05/14 08:42:13;;;;;;;4.10;3.73;;;21.60;64.30;;;;;;5050240;28;20201;-72
2023/05/14 08:44:48;;;;;;;4.10;3.70;;;21.70;63.90;;;;;;5051233;28;20205;-73
2023/05/14 08:47:18;;;;;;;4.70;4.30;;;21.70;63.60;;;;;;5052013;28;20225;-75
2023/05/14 08:49:49;;;;;;;4.40;4.00;;;21.80;63.50;;;;;;5052825;28;20332;-75
2023/05/14 08:52:18;;;;;;;3.90;3.60;;;21.90;63.70;;;;;;5051438;28;20281;-74
2023/05/14 08:54:47;;;;;;;3.83;3.50;;;22.00;63.10;;;;;;5052643;28;20304;-75
2023/05/14 08:57:15;;;;;;;3.93;3.53;;;22.20;61.60;;;;;;5052475;28;20229;-74
2023/05/14 08:59:41;;;;;;;4.27;3.87;;;22.30;61.40;;;;;;5051855;28;20280;-77
2023/05/14 09:02:12;;;;;;;3.93;3.63;;;22.40;60.80;;;;;;5051780;28;20589;-75
2023/05/14 09:04:41;;;;;;;3.90;3.50;;;22.50;60.40;;;;;;5050381;28;20222;-76
2023/05/14 09:07:08;;;;;;;3.87;3.50;;;22.60;61.00;;;;;;5052136;28;20301;-78
2023/05/14 09:09:35;;;;;;;4.37;3.87;;;22.70;61.00;;;;;;5017635;28;20218;-79
2023/05/14 09:12:02;;;;;;;3.50;3.20;;;22.90;60.40;;;;;;5053001;28;20672;-79
2023/05/14 09:14:29;;;;;;;4.10;3.70;;;22.90;59.80;;;;;;5053411;28;20301;-76
2023/05/14 09:16:56;;;;;;;4.40;3.27;;;23.00;60.50;;;;;;5051317;28;20292;-73
2023/05/14 09:19:23;;;;;;;3.20;2.90;;;23.10;60.30;;;;;;5039948;28;20241;-72
2023/05/14 09:21:51;;;;;;;3.23;3.03;;;23.20;58.50;;;;;;5041498;28;20220;-75
2023/05/14 09:24:22;;;;;;;3.40;3.10;;;23.30;57.40;;;;;;5043495;28;20605;-74
2023/05/14 09:26:54;;;;;;;3.47;3.17;;;23.40;57.00;;;;;;5054687;28;20754;-73
2023/05/14 09:29:21;;;;;;;3.83;3.53;;;23.40;57.90;;;;;;5050209;28;20322;-75
2023/05/14 09:31:50;;;;;;;3.30;2.97;;;23.50;58.10;;;;;;5058460;28;20216;-72
2023/05/14 09:34:24;;;;;;;3.80;3.50;;;23.70;58.90;;;;;;5050182;28;20242;-72
2023/05/14 09:36:56;;;;;;;2.93;2.73;;;23.80;58.50;;;;;;5049267;28;20198;-74
2023/05/14 09:39:23;;;;;;;3.60;3.30;;;23.80;58.00;;;;;;5043253;28;20205;-73
2023/05/14 09:41:51;;;;;;;4.43;3.67;;;23.80;58.20;;;;;;5050383;28;20197;-70
2023/05/14 09:44:18;;;;;;;3.70;3.40;;;23.90;58.10;;;;;;5046080;28;20244;-72
2023/05/14 09:46:45;;;;;;;3.50;3.20;;;24.00;57.70;;;;;;5047817;28;20201;-72
2023/05/14 09:49:12;;;;;;;4.27;3.87;;;24.10;57.30;;;;;;5049832;28;20815;-73
2023/05/14 09:51:39;;;;;;;4.40;3.37;;;24.20;56.80;;;;;;5050169;28;20217;-70
2023/05/14 09:54:08;;;;;;;3.77;3.47;;;24.30;57.00;;;;;;5050239;28;20209;-71
2023/05/14 09:56:38;;;;;;;5.07;3.23;;;24.40;56.90;;;;;;5049091;28;20202;-74
2023/05/14 09:59:06;;;;;;;3.60;3.30;;;24.40;56.30;;;;;;5050176;28;20225;-76
2023/05/14 10:01:33;;;;;;;3.47;3.17;;;24.50;55.60;;;;;;5051420;28;20326;-77
2023/05/14 10:04:02;;;;;;;3.60;3.30;;;24.50;56.80;;;;;;5051172;28;20226;-77
2023/05/14 10:06:33;;;;;;;3.43;3.10;;;24.50;55.60;;;;;;5050786;28;20198;-78
2023/05/14 10:09:03;;;;;;;3.70;3.17;;;24.50;55.50;;;;;;5050332;28;20231;-76
2023/05/14 10:11:34;;;;;;;3.40;3.10;;;24.40;55.10;;;;;;5049014;28;20228;-78
2023/05/14 10:14:06;;;;;;;3.40;3.10;;;24.40;55.50;;;;;;5035419;28;20554;-78
2023/05/14 10:16:37;;;;;;;3.57;3.27;;;24.40;55.20;;;;;;5043410;28;20356;-78
2023/05/14 10:19:08;;;;;;;2.97;2.77;;;24.40;55.20;;;;;;5050626;28;20213;-80
2023/05/14 10:21:36;;;;;;;2.77;2.57;;;24.40;55.10;;;;;;5034437;28;20216;-80
2023/05/14 10:24:04;;;;;;;2.77;2.57;;;24.40;54.10;;;;;;5040963;28;20568;-77
2023/05/14 10:26:39;;;;;;;3.47;3.13;;;24.30;54.00;;;;;;5033703;28;20210;-79
2023/05/14 10:29:06;;;;;;;3.53;3.23;;;24.30;54.00;;;;;;5051245;28;20201;-76
2023/05/14 10:31:47;;;;;;;3.57;3.27;;;24.40;54.60;;;;;;5050840;28;20303;-79
2023/05/14 10:34:42;;;;;;;3.83;3.53;;;24.40;56.10;;;;;;5054601;28;20205;-79
2023/05/14 10:37:10;;;;;;;4.30;3.27;;;24.60;56.50;;;;;;5052754;28;20585;-73
2023/05/14 10:39:42;;;;;;;3.97;3.57;;;24.70;55.30;;;;;;5053037;28;20237;-74
2023/05/14 10:42:11;;;;;;;3.53;3.23;;;24.70;54.60;;;;;;5054175;28;20307;-73
2023/05/14 10:44:45;;;;;;;3.70;3.30;;;24.70;54.80;;;;;;5052540;28;20212;-74
2023/05/14 10:47:13;;;;;;;3.97;3.67;;;24.60;54.70;;;;;;5053525;28;20200;-72
2023/05/14 10:49:40;;;;;;;3.90;3.50;;;24.60;55.10;;;;;;5052672;28;20551;-74
2023/05/14 10:52:08;;;;;;;4.50;3.57;;;24.50;55.20;;;;;;5053634;28;20559;-75
2023/05/14 10:54:36;;;;;;;3.87;3.57;;;24.50;55.50;;;;;;5052711;28;20206;-75
2023/05/14 10:57:03;;;;;;;3.47;3.17;;;24.40;55.20;;;;;;5052285;28;20594;-75
2023/05/14 10:59:34;;;;;;;4.00;3.63;;;24.40;55.70;;;;;;5052456;28;20540;-74
2023/05/14 11:02:05;;;;;;;4.13;3.70;;;24.40;56.30;;;;;;5051607;28;20657;-75
2023/05/14 11:04:32;;;;;;;3.67;3.37;;;24.50;56.50;;;;;;5017437;28;20216;-74
2023/05/14 11:07:00;;;;;;;3.50;3.20;;;24.50;56.30;;;;;;5017497;28;20208;-75
2023/05/14 11:09:27;;;;;;;3.53;3.23;;;24.50;55.60;;;;;;5052315;28;20198;-74
2023/05/14 11:11:54;;;;;;;3.43;3.13;;;24.50;55.10;;;;;;5052947;28;20276;-74
2023/05/14 11:14:22;;;;;;;3.53;3.23;;;24.60;55.70;;;;;;5051961;28;20683;-75
2023/05/14 11:16:50;;;;;;;3.43;3.10;;;24.60;55.30;;;;;;5052829;28;20729;-74
2023/05/14 11:19:21;;;;;;;4.03;3.63;;;24.70;55.20;;;;;;5034887;28;20194;-75
2023/05/14 11:21:48;;;;;;;3.40;3.10;;;24.80;54.90;;;;;;5048913;28;20209;-75
2023/05/14 11:24:15;;;;;;;3.50;3.20;;;24.80;54.50;;;;;;5051372;28;20221;-75
2023/05/14 11:26:42;;;;;;;3.87;3.40;;;24.90;54.80;;;;;;5052863;28;20217;-74
2023/05/14 11:29:10;;;;;;;3.73;3.23;;;24.90;55.10;;;;;;5052617;28;20617;-74
2023/05/14 11:31:39;;;;;;;3.70;3.40;;;24.90;54.80;;;;;;5052689;28;20227;-74
2023/05/14 11:34:08;;;;;;;3.57;3.27;;;24.80;54.80;;;;;;5052229;28;20197;-74
2023/05/14 11:36:36;;;;;;;3.97;3.27;;;24.80;54.80;;;;;;5051798;28;20197;-75
2023/05/14 11:39:03;;;;;;;3.80;3.50;;;24.90;54.70;;;;;;5034047;28;20261;-73
2023/05/14 11:41:30;;;;;;;4.40;4.00;;;24.90;55.20;;;;;;5032921;28;20301;-74
2023/05/14 11:44:00;;;;;;;3.70;3.40;;;24.90;54.90;;;;;;5048979;28;20668;-74
2023/05/14 11:46:29;;;;;;;3.67;3.37;;;24.90;55.00;;;;;;5033960;28;20288;-74
2023/05/14 11:48:56;;;;;;;4.60;4.20;;;24.90;54.80;;;;;;5051613;28;20237;-74
2023/05/14 11:51:24;;;;;;;4.33;3.97;;;24.90;54.80;;;;;;5032776;28;20321;-74
2023/05/14 11:53:51;;;;;;;3.90;3.60;;;24.90;54.80;;;;;;5044043;28;20862;-74
2023/05/14 11:56:18;;;;;;;3.97;3.50;;;24.90;54.90;;;;;;5052461;28;20289;-74
2023/05/14 11:58:48;;;;;;;3.83;3.53;;;25.00;54.80;;;;;;5052479;28;20280;-75
2023/05/14 12:01:16;;;;;;;3.77;3.47;;;25.00;55.10;;;;;;5052470;28;20198;-74
2023/05/14 12:03:42;;;;;;;4.20;3.80;;;25.10;54.60;;;;;;5052179;28;20206;-74
2023/05/14 12:06:09;;;;;;;4.10;3.70;;;25.10;54.10;;;;;;5053250;28;20284;-74
2023/05/14 12:08:38;;;;;;;4.70;4.10;;;25.10;54.50;;;;;;5052773;28;20654;-74
2023/05/14 12:11:05;;;;;;;4.57;4.17;;;25.20;53.70;;;;;;5066360;28;20253;-74
2023/05/14 12:13:32;;;;;;;3.53;3.00;;;25.20;53.80;;;;;;5076606;28;20218;-75
2023/05/14 12:16:01;;;;;;;3.97;3.67;;;25.30;54.10;;;;;;5076667;28;20265;-75
2023/05/14 12:18:30;;;;;;;4.10;3.10;;;25.30;53.30;;;;;;5075830;28;20225;-75
2023/05/14 12:21:03;;;;;;;3.37;3.17;;;25.40;54.10;;;;;;5077022;28;20186;-74
2023/05/14 12:23:31;;;;;;;3.43;3.13;;;25.40;53.30;;;;;;5066686;28;20217;-74
2023/05/14 12:26:04;;;;;;;3.80;3.33;;;25.40;53.40;;;;;;5065864;28;20725;-74
2023/05/14 12:28:32;;;;;;;4.30;3.90;;;25.40;53.50;;;;;;5050836;28;20288;-75
2023/05/14 12:30:59;;;;;;;4.13;3.83;;;25.40;53.40;;;;;;5051678;28;20228;-75
2023/05/14 12:33:27;;;;;;;4.03;3.63;;;25.30;53.50;;;;;;5051334;28;20200;-75
2023/05/14 12:35:56;;;;;;;3.80;3.43;;;25.40;53.50;;;;;;5046435;28;20202;-78
2023/05/14 12:38:23;;;;;;;4.03;3.70;;;25.40;53.40;;;;;;5052871;28;20654;-79
2023/05/14 12:40:50;;;;;;;3.70;3.40;;;25.50;53.10;;;;;;5034701;28;20200;-81
2023/05/14 12:43:18;;;;;;;3.70;3.40;;;25.50;52.90;;;;;;5052921;28;20316;-78
2023/05/14 12:45:46;;;;;;;5.00;3.67;;;25.60;53.00;;;;;;5052624;28;20209;-77
2023/05/14 12:48:14;;;;;;;3.30;3.00;;;25.70;53.20;;;;;;5050439;28;20207;-76
2023/05/14 12:50:41;;;;;;;4.43;3.47;;;25.80;52.60;;;;;;5050460;28;20218;-76